< < Back
Terminal Aerodrome Forecast


Current Version              Previous Versions:   1  2  3  4  5  6  7  8  9  

Terminal Aerodrome Forecast

728
FTUS42 KMLB 060520
TAFDAB
TAF
KDAB 060520Z 0606/0706 29005KT P6SM SKC
     FM061200 30010KT P6SM FEW040
     FM061500 31013G20KT P6SM FEW050
     FM062000 35012KT P6SM FEW060
     FM070000 26005KT P6SM SKC=

Latest METAR

671
SAUS80 KWBC 060700
MTRDAB
METAR KDAB 060653Z 23003KT 10SM CLR 13/07 A2982 RMK AO2 SLP096
T01330067


USA.gov is the U.S. government's official web portal to all federal, state and local government web resources and services.